Time;durP1;ratioP1;P1;durP2;ratioP2;P2;SDS_P1;SDS_P2;PMS_P1;PMS_P2;Temp;Humidity;BMP_temperature;BMP_pressure;BME280_temperature;BME280_humidity;BME280_pressure;Samples;Min_cycle;Max_cycle;Signal;HPM_P1;HPM_P2
2023/09/02 00:00:45;;;;;;;;;19.00;18.60;;;;;19.21;52.19;99707.66;5048835;28;8879;-76
2023/09/02 00:03:36;;;;;;;;;20.20;17.40;;;;;19.36;51.86;99721.97;5048037;28;8836;-77
2023/09/02 00:06:05;;;;;;;;;13.60;13.60;;;;;19.46;51.16;99719.66;5048416;28;8998;-78
2023/09/02 00:08:34;;;;;;;;;17.40;17.40;;;;;19.52;50.91;99722.03;5031875;28;8875;-78
2023/09/02 00:11:02;;;;;;;;;19.40;19.40;;;;;19.59;50.63;99726.06;5050058;28;9585;-77
2023/09/02 00:13:31;;;;;;;;;18.40;17.40;;;;;19.58;50.85;99724.34;5019141;28;9608;-77
2023/09/02 00:16:00;;;;;;;;;17.60;17.60;;;;;19.65;50.76;99722.19;5018849;28;8862;-78
2023/09/02 00:18:29;;;;;;;;;18.40;17.20;;;;;19.71;50.69;99713.84;5051538;28;8883;-79
2023/09/02 00:20:59;;;;;;;;;14.80;14.00;;;;;19.74;50.33;99718.16;5068152;28;8972;-77
2023/09/02 00:23:28;;;;;;;;;14.60;13.00;;;;;19.71;49.56;99713.84;5069842;28;8876;-78
2023/09/02 00:25:57;;;;;;;;;14.20;13.40;;;;;19.70;49.00;99714.78;5102012;28;8954;-77
2023/09/02 00:28:26;;;;;;;;;17.80;16.00;;;;;19.70;49.70;99715.63;5105212;28;8863;-77
2023/09/02 00:30:55;;;;;;;;;11.60;10.80;;;;;19.63;49.17;99706.28;5093315;28;8874;-76
2023/09/02 00:33:24;;;;;;;;;16.40;14.60;;;;;19.66;49.42;99708.78;5090233;28;8928;-78
2023/09/02 00:35:52;;;;;;;;;16.40;16.40;;;;;19.67;49.75;99709.66;5091128;28;8892;-78
2023/09/02 00:38:23;;;;;;;;;14.20;13.60;;;;;19.70;49.30;99698.78;5072484;28;8844;-77
2023/09/02 00:41:00;;;;;;;;;13.00;12.60;;;;;19.70;49.66;99702.31;5022248;28;8863;-78
2023/09/02 00:43:30;;;;;;;;;14.20;14.20;;;;;19.69;49.46;99703.28;5089270;28;8856;-77
2023/09/02 00:45:59;;;;;;;;;15.60;14.80;;;;;19.73;49.54;99705.78;5109025;28;8864;-78
2023/09/02 00:48:28;;;;;;;;;15.80;15.00;;;;;19.71;48.62;99706.72;5109326;28;8864;-78
2023/09/02 00:50:58;;;;;;;;;15.40;15.40;;;;;19.69;48.91;99708.59;5109479;28;8849;-77
2023/09/02 00:53:29;;;;;;;;;13.00;12.80;;;;;19.70;48.84;99701.44;5109114;28;8860;-80
2023/09/02 00:55:57;;;;;;;;;14.80;14.60;;;;;19.69;48.78;99711.28;5126157;27;8898;-75
2023/09/02 00:58:26;;;;;;;;;14.80;13.80;;;;;19.50;49.26;99711.41;5104550;28;8835;-78
2023/09/02 01:00:56;;;;;;;;;17.40;16.40;;;;;19.60;49.47;99714.44;5071215;28;8827;-78
2023/09/02 01:03:25;;;;;;;;;16.80;15.60;;;;;19.63;49.25;99713.41;5088238;28;8886;-77
2023/09/02 01:05:54;;;;;;;;;14.00;13.80;;;;;19.66;49.29;99716.75;5104641;28;8848;-78
2023/09/02 01:08:24;;;;;;;;;15.60;15.60;;;;;19.69;49.55;99713.09;5089971;28;8847;-78
2023/09/02 01:10:54;;;;;;;;;19.80;19.60;;;;;19.71;49.68;99720.03;5089940;28;8940;-76
2023/09/02 01:13:24;;;;;;;;;16.40;16.40;;;;;19.75;49.58;99717.22;5089940;28;8858;-78
2023/09/02 01:15:54;;;;;;;;;11.40;11.40;;;;;19.76;49.54;99721.59;5105582;28;8980;-76
2023/09/02 01:18:23;;;;;;;;;16.20;15.20;;;;;19.75;49.58;99719.88;5089885;28;8847;-77
2023/09/02 01:21:10;;;;;;;;;11.80;11.80;;;;;19.79;48.75;99721.44;5072028;28;9582;-77
2023/09/02 01:23:59;;;;;;;;;12.40;12.40;;;;;19.74;48.82;99718.16;5094844;28;8844;-77
2023/09/02 01:26:38;;;;;;;;;16.80;16.00;;;;;19.61;49.30;99715.31;5096804;28;8859;-77
2023/09/02 01:29:13;;;;;;;;;17.80;17.00;;;;;19.54;49.43;99713.91;5095472;28;8839;-77
2023/09/02 01:31:43;;;;;;;;;16.40;16.40;;;;;19.30;49.87;99714.31;5088902;28;8859;-78
2023/09/02 01:34:13;;;;;;;;;19.00;19.00;;;;;19.30;49.67;99708.97;5089439;28;8828;-78
2023/09/02 01:36:42;;;;;;;;;18.20;18.20;;;;;19.33;49.44;99708.81;5089486;28;8855;-76
2023/09/02 01:39:13;;;;;;;;;17.20;15.60;;;;;19.32;49.29;99712.41;5099852;28;8944;-77
2023/09/02 01:41:42;;;;;;;;;18.40;18.40;;;;;19.24;49.63;99704.84;5089538;28;8851;-77
2023/09/02 01:44:14;;;;;;;;;18.40;18.40;;;;;19.24;49.79;99704.84;5089272;28;8839;-76
2023/09/02 01:46:43;;;;;;;;;19.40;19.20;;;;;19.18;49.77;99707.84;5105039;28;9014;-78
2023/09/02 01:49:12;;;;;;;;;21.80;21.60;;;;;19.28;49.85;99716.19;5087596;28;8843;-79
2023/09/02 01:51:43;;;;;;;;;22.60;20.20;;;;;19.36;49.61;99711.31;5069901;28;8883;-77
2023/09/02 01:54:11;;;;;;;;;20.40;20.40;;;;;19.42;49.55;99712.75;5087957;28;8870;-77
2023/09/02 01:56:41;;;;;;;;;25.00;24.00;;;;;19.33;49.40;99703.50;5104698;28;8856;-78
2023/09/02 01:59:10;;;;;;;;;25.50;25.50;;;;;19.40;49.31;99712.00;5020362;28;8928;-77
2023/09/02 02:01:40;;;;;;;;;24.20;24.20;;;;;19.40;49.68;99706.66;5104864;27;8843;-78
2023/09/02 02:04:16;;;;;;;;;20.60;20.00;;;;;19.47;49.77;99705.38;5107713;28;8858;-77
2023/09/02 02:06:47;;;;;;;;;22.00;22.00;;;;;19.46;49.38;99701.88;5092404;28;8997;-77
2023/09/02 02:09:27;;;;;;;;;21.80;21.40;;;;;19.51;49.37;99705.16;5087771;28;8855;-78
2023/09/02 02:11:58;;;;;;;;;21.60;20.80;;;;;19.46;49.00;99704.53;5104612;28;8940;-77
2023/09/02 02:14:31;;;;;;;;;18.60;17.80;;;;;19.49;49.31;99701.69;5089098;28;8831;-78
2023/09/02 02:17:03;;;;;;;;;20.00;20.00;;;;;19.52;49.69;99700.69;5093081;28;8863;-76
2023/09/02 02:19:32;;;;;;;;;19.80;19.40;;;;;19.48;49.47;99705.31;5101533;28;8927;-77
2023/09/02 02:22:02;;;;;;;;;20.40;20.40;;;;;19.45;49.47;99702.78;5099747;28;8865;-78
2023/09/02 02:24:31;;;;;;;;;22.40;21.20;;;;;19.47;49.40;99710.72;5088425;28;8881;-78
2023/09/02 02:26:59;;;;;;;;;22.00;21.20;;;;;19.46;49.16;99701.88;5086922;28;8854;-78
2023/09/02 02:29:28;;;;;;;;;25.00;23.60;;;;;19.47;49.36;99703.56;5098565;28;8880;-78
2023/09/02 02:31:57;;;;;;;;;19.60;19.60;;;;;19.45;48.92;99699.28;5086477;28;8934;-78
2023/09/02 02:34:28;;;;;;;;;21.20;21.20;;;;;19.44;49.32;99701.09;5085976;28;8861;-78
2023/09/02 02:36:56;;;;;;;;;23.40;20.20;;;;;19.46;48.88;99703.66;5086521;28;8869;-77
2023/09/02 02:39:25;;;;;;;;;18.80;17.80;;;;;19.44;49.02;99695.75;5086018;28;8833;-77
2023/09/02 02:41:54;;;;;;;;;19.60;19.40;;;;;19.45;49.47;99691.28;5086159;28;8968;-78
2023/09/02 02:44:23;;;;;;;;;20.40;20.40;;;;;19.47;49.42;99697.38;5085830;28;8834;-78
2023/09/02 02:46:52;;;;;;;;;17.80;17.80;;;;;19.48;49.22;99691.97;5094221;28;8851;-78
2023/09/02 02:49:20;;;;;;;;;20.60;19.60;;;;;19.48;49.30;99689.31;5089535;28;8970;-78
2023/09/02 02:51:51;;;;;;;;;16.00;16.00;;;;;19.50;49.13;99698.09;5103913;28;8836;-77
2023/09/02 02:54:20;;;;;;;;;18.40;16.40;;;;;19.46;49.10;99690.31;5103860;28;8907;-77
2023/09/02 02:56:49;;;;;;;;;17.40;17.00;;;;;19.47;49.09;99695.56;5052686;28;8859;-77
2023/09/02 02:59:18;;;;;;;;;19.60;19.60;;;;;19.50;49.04;99692.75;5053347;28;8851;-77
2023/09/02 03:01:47;;;;;;;;;21.40;19.20;;;;;19.46;48.79;99688.53;5103789;28;8844;-78
2023/09/02 03:04:17;;;;;;;;;19.20;19.00;;;;;19.45;49.00;99694.81;5088264;28;8863;-77
2023/09/02 03:06:46;;;;;;;;;20.60;20.00;;;;;19.45;49.24;99693.94;5087229;28;9660;-77
2023/09/02 03:09:16;;;;;;;;;20.40;19.40;;;;;19.50;49.36;99692.75;5070430;28;8883;-79
2023/09/02 03:11:45;;;;;;;;;21.40;19.20;;;;;19.48;49.51;99691.97;5087000;28;8852;-79
2023/09/02 03:14:14;;;;;;;;;24.00;22.40;;;;;19.47;49.55;99695.56;5111539;28;8836;-77
2023/09/02 03:16:42;;;;;;;;;23.60;22.00;;;;;19.47;48.79;99695.56;5103170;28;8958;-77
2023/09/02 03:19:11;;;;;;;;;25.00;23.20;;;;;19.46;48.70;99692.97;5078549;28;9756;-77
2023/09/02 03:21:40;;;;;;;;;35.50;33.00;;;;;19.46;49.49;99690.31;5071318;28;8885;-76
2023/09/02 03:24:09;;;;;;;;;62.50;50.75;;;;;19.45;49.12;99700.13;5088487;28;8952;-78
2023/09/02 03:26:39;;;;;;;;;27.00;26.50;;;;;19.43;48.90;99690.50;5086797;28;8859;-80
2023/09/02 03:29:08;;;;;;;;;21.20;21.20;;;;;19.42;49.10;99702.09;5091646;28;8851;-77
2023/09/02 03:31:38;;;;;;;;;20.40;19.80;;;;;19.42;49.09;99708.28;5090242;28;8851;-77
2023/09/02 03:34:07;;;;;;;;;19.20;19.20;;;;;19.42;49.27;99704.78;5090464;28;8835;-76
2023/09/02 03:36:36;;;;;;;;;17.00;17.00;;;;;19.40;49.20;99704.84;5090425;28;8890;-76
2023/09/02 03:39:05;;;;;;;;;17.20;17.20;;;;;19.38;48.89;99708.56;5073350;28;8827;-78
2023/09/02 03:41:37;;;;;;;;;19.20;19.00;;;;;19.40;49.12;99707.50;5090050;28;8882;-77
2023/09/02 03:44:07;;;;;;;;;19.60;19.60;;;;;19.41;49.12;99709.25;5072233;28;9581;-78
2023/09/02 03:46:36;;;;;;;;;20.60;19.80;;;;;19.39;49.03;99715.63;5088858;28;8971;-79
2023/09/02 03:49:05;;;;;;;;;20.60;20.60;;;;;19.39;49.29;99710.28;5090128;28;8854;-79
2023/09/02 03:51:34;;;;;;;;;22.80;21.00;;;;;19.41;49.18;99714.59;5107289;28;8851;-76
2023/09/02 03:54:04;;;;;;;;;17.00;17.00;;;;;19.41;49.35;99714.59;5106864;28;8863;-76
2023/09/02 03:56:36;;;;;;;;;21.20;19.60;;;;;19.41;49.71;99708.41;5040117;28;8949;-77
2023/09/02 03:59:07;;;;;;;;;20.20;20.20;;;;;19.41;49.32;99708.41;5106725;28;8870;-78
2023/09/02 04:01:36;;;;;;;;;21.00;21.00;;;;;19.32;49.44;99705.28;5073082;28;9751;-76
2023/09/02 04:04:05;;;;;;;;;20.40;19.40;;;;;19.31;49.41;99705.38;5089982;28;8839;-77
2023/09/02 04:06:34;;;;;;;;;23.60;22.00;;;;;19.31;49.42;99716.91;5091328;28;8948;-77
2023/09/02 04:09:05;;;;;;;;;23.00;20.80;;;;;19.30;49.49;99712.50;5091974;28;9581;-77
2023/09/02 04:11:33;;;;;;;;;21.00;21.00;;;;;19.32;49.32;99715.09;5104994;28;8881;-77
2023/09/02 04:14:02;;;;;;;;;45.75;37.75;;;;;19.35;49.54;99716.72;5088712;28;8936;-77
2023/09/02 04:16:33;;;;;;;;;20.60;20.40;;;;;19.38;49.78;99719.22;5041386;28;8921;-76
2023/09/02 04:19:04;;;;;;;;;19.00;19.00;;;;;19.38;49.62;99716.56;5092395;28;9628;-77
2023/09/02 04:21:33;;;;;;;;;29.50;27.50;;;;;19.30;49.59;99719.63;5090932;28;8836;-78
2023/09/02 04:24:02;;;;;;;;;24.00;22.75;;;;;19.32;49.66;99715.94;5092566;28;8840;-77
2023/09/02 04:26:30;;;;;;;;;20.80;20.80;;;;;19.35;49.42;99717.59;5074838;28;8843;-79
2023/09/02 04:29:00;;;;;;;;;24.20;22.00;;;;;19.39;49.85;99724.47;5091489;28;8907;-77
2023/09/02 04:31:29;;;;;;;;;19.25;19.25;;;;;19.47;50.20;99722.22;5106239;28;8874;-76
2023/09/02 04:34:00;;;;;;;;;20.40;18.80;;;;;19.56;49.95;99722.72;5106109;28;8852;-80
2023/09/02 04:36:29;;;;;;;;;18.80;18.80;;;;;19.61;49.64;99718.84;5088829;28;8855;-77
2023/09/02 04:38:58;;;;;;;;;19.00;19.00;;;;;19.65;49.64;99725.72;5088795;28;8924;-76
2023/09/02 04:41:28;;;;;;;;;22.00;21.00;;;;;19.70;49.23;99720.97;5088879;28;8843;-77
2023/09/02 04:43:58;;;;;;;;;18.20;18.20;;;;;19.76;49.46;99722.44;5105953;28;8862;-77
2023/09/02 04:46:27;;;;;;;;;19.80;19.80;;;;;19.83;49.25;99726.50;5089028;28;9007;-77
2023/09/02 04:48:56;;;;;;;;;19.00;19.00;;;;;19.87;49.27;99735.19;5087658;28;8901;-79
2023/09/02 04:51:26;;;;;;;;;19.40;17.20;;;;;19.94;48.77;99733.03;5105684;28;9643;-76
2023/09/02 04:53:55;;;;;;;;;16.60;16.60;;;;;19.98;48.62;99738.09;5088606;28;9608;-77
2023/09/02 04:56:26;;;;;;;;;18.80;18.80;;;;;20.02;48.59;99734.31;5088501;28;8855;-78
2023/09/02 04:58:55;;;;;;;;;18.20;17.40;;;;;20.12;48.26;99739.09;5088625;28;8855;-77
2023/09/02 05:01:25;;;;;;;;;27.00;26.50;;;;;20.20;48.62;99737.72;5088428;28;8874;-77
2023/09/02 05:03:58;;;;;;;;;25.75;24.25;;;;;20.28;48.52;99734.63;5089046;28;8819;-75
2023/09/02 05:06:28;;;;;;;;;22.00;21.75;;;;;20.33;49.00;99739.69;5108263;28;8932;-78
2023/09/02 05:08:58;;;;;;;;;18.50;18.00;;;;;20.41;48.84;99745.47;5115816;28;8851;-77
2023/09/02 05:11:32;;;;;;;;;23.80;21.40;;;;;20.55;48.82;99747.31;5097029;28;8852;-78
2023/09/02 05:14:01;;;;;;;;;20.80;19.60;;;;;20.51;48.62;99746.63;5076949;27;8829;-78
2023/09/02 05:16:32;;;;;;;;;23.60;22.00;;;;;20.59;48.27;99743.50;5109021;28;8929;-77
2023/09/02 05:19:01;;;;;;;;;23.50;22.00;;;;;20.67;48.22;99747.44;5108423;28;8849;-78
2023/09/02 05:21:32;;;;;;;;;25.25;22.25;;;;;20.78;48.17;99752.13;5108670;28;8837;-78
2023/09/02 05:24:01;;;;;;;;;25.25;24.25;;;;;20.90;47.78;99752.34;5110088;28;8868;-77
2023/09/02 05:26:29;;;;;;;;;21.50;21.50;;;;;20.98;48.13;99752.78;5108426;28;8849;-78
2023/09/02 05:28:58;;;;;;;;;25.00;25.00;;;;;21.07;47.93;99744.19;5108379;28;8857;-77
2023/09/02 05:31:27;;;;;;;;;26.50;23.50;;;;;21.15;47.63;99749.06;5108546;28;8863;-78
2023/09/02 05:33:56;;;;;;;;;29.25;24.50;;;;;21.23;46.73;99746.75;5090434;28;8880;-78
2023/09/02 05:36:25;;;;;;;;;25.50;25.50;;;;;21.32;47.07;99737.31;5109521;28;9111;-78
2023/09/02 05:38:55;;;;;;;;;28.00;26.50;;;;;21.42;47.03;99736.63;5109439;28;9631;-80
2023/09/02 05:41:24;;;;;;;;;27.75;26.00;;;;;21.52;46.21;99733.38;5089952;28;8845;-78
2023/09/02 05:43:53;;;;;;;;;28.50;25.75;;;;;21.64;45.78;99736.16;5091323;28;8821;-78
2023/09/02 05:46:22;;;;;;;;;21.75;21.50;;;;;21.73;45.26;99724.00;5090472;28;8837;-78
2023/09/02 05:48:51;;;;;;;;;25.50;24.25;;;;;21.82;45.66;99731.44;5108168;28;8852;-78
2023/09/02 05:51:19;;;;;;;;;31.25;30.25;;;;;21.99;44.97;99730.34;5088992;28;8837;-76
2023/09/02 05:53:49;;;;;;;;;29.50;28.00;;;;;22.12;44.74;99735.72;5105147;28;8843;-78
2023/09/02 05:56:19;;;;;;;;;26.75;26.75;;;;;22.16;44.31;99726.53;5103431;28;8902;-78
2023/09/02 05:58:48;;;;;;;;;31.75;30.00;;;;;22.26;44.18;99731.28;5109648;27;8883;-77
2023/09/02 06:01:17;;;;;;;;;35.75;32.50;;;;;22.32;44.16;99728.22;5109611;28;8949;-77
2023/09/02 06:03:46;;;;;;;;;32.25;31.25;;;;;22.41;43.82;99735.63;5120311;28;8852;-77
2023/09/02 06:06:15;;;;;;;;;36.75;32.50;;;;;22.54;43.26;99731.19;5083535;28;8861;-77
2023/09/02 06:08:44;;;;;;;;;8.75;8.75;;;;;22.65;43.33;99729.56;5110280;28;8844;-77
2023/09/02 06:11:13;;;;;;;;;32.50;31.00;;;;;22.81;43.41;99732.91;5108481;28;8869;-77
2023/09/02 06:13:44;;;;;;;;;28.25;27.00;;;;;22.95;42.80;99735.50;5090137;28;8853;-77
2023/09/02 06:16:13;;;;;;;;;29.00;29.00;;;;;23.08;42.31;99738.19;5108862;28;8945;-78
2023/09/02 06:18:42;;;;;;;;;31.00;29.75;;;;;23.14;42.06;99731.53;5109085;28;8845;-77
2023/09/02 06:21:11;;;;;;;;;28.00;26.00;;;;;23.15;41.60;99734.13;5109049;28;8829;-78
2023/09/02 06:23:43;;;;;;;;;27.00;26.50;;;;;23.25;41.68;99733.47;5108941;28;8844;-78
2023/09/02 06:26:12;;;;;;;;;26.75;26.75;;;;;23.24;41.35;99729.91;5107327;28;8949;-77
2023/09/02 06:28:43;;;;;;;;;28.50;26.75;;;;;23.40;40.99;99735.06;5108362;28;8880;-77
2023/09/02 06:31:12;;;;;;;;;22.25;22.25;;;;;23.48;40.91;99742.53;5099545;28;8844;-77
2023/09/02 06:33:41;;;;;;;;;29.00;29.00;;;;;23.56;41.23;99745.56;5087236;28;9004;-80
2023/09/02 06:36:10;;;;;;;;;23.75;23.75;;;;;23.73;41.17;99752.38;5069552;28;8840;-76
2023/09/02 06:38:40;;;;;;;;;26.50;26.25;;;;;23.84;41.35;99744.41;5086582;28;8871;-79
2023/09/02 06:41:12;;;;;;;;;26.25;26.25;;;;;23.94;40.82;99741.91;5086492;28;8839;-78
2023/09/02 06:43:43;;;;;;;;;27.50;26.00;;;;;24.06;40.85;99741.00;5086354;28;9782;-78
2023/09/02 06:46:15;;;;;;;;;21.75;21.75;;;;;24.15;40.73;99748.41;5087687;28;8872;-77
2023/09/02 06:48:44;;;;;;;;;21.00;21.00;;;;;24.27;39.75;99748.47;5086415;28;8847;-78
2023/09/02 06:51:13;;;;;;;;;20.75;20.75;;;;;24.40;39.26;99751.09;5085506;28;8848;-78
2023/09/02 06:53:43;;;;;;;;;19.00;18.00;;;;;24.54;39.31;99750.88;5045013;28;8851;-78
2023/09/02 06:56:13;;;;;;;;;24.25;23.00;;;;;24.68;39.63;99752.47;5045097;28;8847;-78
2023/09/02 06:58:44;;;;;;;;;24.25;23.75;;;;;24.82;39.12;99757.69;5049771;28;8885;-77
2023/09/02 07:01:17;;;;;;;;;26.00;25.00;;;;;24.98;39.15;99756.50;5054976;28;8906;-78
2023/09/02 07:03:46;;;;;;;;;22.00;22.00;;;;;24.98;37.54;99761.88;5076921;28;8987;-78
2023/09/02 07:06:15;;;;;;;;;14.00;14.00;;;;;24.99;35.39;99759.06;5070043;28;9010;-78
2023/09/02 07:08:45;;;;;;;;;18.50;18.25;;;;;25.06;36.35;99763.00;5069048;28;8937;-77
2023/09/02 07:11:14;;;;;;;;;17.80;17.00;;;;;25.08;36.42;99761.06;5068852;28;8840;-77
2023/09/02 07:13:45;;;;;;;;;19.00;19.00;;;;;25.13;36.80;99761.56;5051765;28;8850;-78
2023/09/02 07:16:15;;;;;;;;;24.00;24.00;;;;;25.31;37.06;99771.81;5068765;28;8864;-77
2023/09/02 07:18:45;;;;;;;;;23.50;23.00;;;;;25.40;37.10;99760.38;5057636;28;8822;-78
2023/09/02 07:21:14;;;;;;;;;18.75;18.75;;;;;25.46;36.72;99765.25;5048016;28;8988;-78
2023/09/02 07:23:43;;;;;;;;;18.75;18.75;;;;;25.47;36.37;99775.06;5048651;28;8871;-78
2023/09/02 07:26:12;;;;;;;;;21.50;21.00;;;;;25.61;36.29;99779.31;5108888;28;8852;-78
2023/09/02 07:28:42;;;;;;;;;20.50;18.50;;;;;25.60;36.07;99779.44;5123530;27;8847;-78
2023/09/02 07:31:12;;;;;;;;;15.00;15.00;;;;;25.61;35.38;99784.69;5091239;28;8948;-78
2023/09/02 07:33:42;;;;;;;;;17.80;17.00;;;;;25.63;35.30;99784.59;5089413;28;8852;-78
2023/09/02 07:36:12;;;;;;;;;15.20;14.60;;;;;25.78;34.51;99782.50;5091358;28;8832;-78
2023/09/02 07:38:44;;;;;;;;;15.75;15.50;;;;;25.94;34.50;99782.13;5091268;28;8851;-77
2023/09/02 07:41:12;;;;;;;;;15.50;15.50;;;;;26.03;34.33;99790.28;5090923;28;8967;-77
2023/09/02 07:43:41;;;;;;;;;20.25;20.00;;;;;26.11;34.24;99791.50;5090500;28;8840;-78
2023/09/02 07:46:12;;;;;;;;;16.75;15.00;;;;;26.15;32.54;99787.56;5090429;28;8851;-77
2023/09/02 07:48:43;;;;;;;;;16.20;16.20;;;;;26.04;32.74;99796.53;5089877;28;8844;-78
2023/09/02 07:51:13;;;;;;;;;14.50;14.50;;;;;26.09;32.88;99797.84;5091206;28;8855;-77
2023/09/02 07:53:41;;;;;;;;;16.00;15.00;;;;;26.14;33.02;99804.72;5091573;28;8914;-77
2023/09/02 07:56:10;;;;;;;;;15.50;15.50;;;;;26.16;32.79;99794.69;5100148;28;8925;-76
2023/09/02 07:58:42;;;;;;;;;12.60;12.60;;;;;26.23;32.23;99794.03;5098191;28;8875;-79
2023/09/02 08:01:12;;;;;;;;;14.40;14.40;;;;;26.34;32.19;99803.06;5093143;28;9581;-77
2023/09/02 08:03:41;;;;;;;;;11.80;11.80;;;;;26.37;31.77;99798.28;5040319;28;8994;-78
2023/09/02 08:06:10;;;;;;;;;13.80;13.80;;;;;26.45;31.36;99803.03;5089510;28;8883;-78
2023/09/02 08:08:39;;;;;;;;;11.80;11.80;;;;;26.43;31.61;99803.16;5089184;28;8998;-78
2023/09/02 08:11:08;;;;;;;;;16.50;16.50;;;;;26.43;31.02;99802.28;5105622;28;8886;-79
2023/09/02 08:13:37;;;;;;;;;13.40;13.40;;;;;26.52;31.29;99808.81;5088791;28;8906;-78
2023/09/02 08:16:06;;;;;;;;;14.20;13.20;;;;;26.51;31.26;99812.47;5071333;28;8839;-79
2023/09/02 08:18:36;;;;;;;;;17.00;17.00;;;;;26.59;31.63;99816.25;5090706;28;8836;-78
2023/09/02 08:21:09;;;;;;;;;11.60;11.40;;;;;26.64;31.46;99810.44;5021435;28;9799;-78
2023/09/02 08:23:38;;;;;;;;;14.60;14.00;;;;;26.70;30.84;99815.31;5090257;28;8839;-78
2023/09/02 08:26:12;;;;;;;;;17.20;15.80;;;;;26.54;31.55;99812.22;5090199;28;8867;-78
2023/09/02 08:28:41;;;;;;;;;12.80;12.80;;;;;26.55;30.91;99819.31;5090001;28;8963;-78
2023/09/02 08:31:11;;;;;;;;;12.25;12.25;;;;;26.49;30.74;99823.38;5089836;28;9602;-78
2023/09/02 08:33:42;;;;;;;;;17.25;16.00;;;;;26.50;31.32;99819.72;5090113;28;8860;-77
2023/09/02 08:36:15;;;;;;;;;12.40;12.40;;;;;26.39;31.09;99820.56;5089795;28;9573;-78
2023/09/02 08:38:44;;;;;;;;;13.60;13.60;;;;;26.48;31.34;99819.81;5090207;28;9604;-78
2023/09/02 08:41:24;;;;;;;;;15.75;14.75;;;;;26.65;31.34;99818.41;5089756;28;8977;-76
2023/09/02 08:43:55;;;;;;;;;12.80;12.00;;;;;26.35;30.05;99819.13;5089820;28;8858;-80
2023/09/02 08:46:27;;;;;;;;;11.75;11.00;;;;;26.48;31.23;99819.81;5089681;28;8847;-78
2023/09/02 08:48:58;;;;;;;;;15.00;15.00;;;;;26.51;30.81;99823.25;5071620;28;8855;-78
2023/09/02 08:51:28;;;;;;;;;14.50;14.50;;;;;26.58;30.69;99821.75;5091837;28;8851;-76
2023/09/02 08:53:57;;;;;;;;;13.00;12.40;;;;;26.67;30.18;99821.00;5092952;28;8847;-78
2023/09/02 08:56:27;;;;;;;;;13.25;12.50;;;;;26.52;30.64;99824.97;5069415;28;9637;-79
2023/09/02 08:58:56;;;;;;;;;9.40;9.40;;;;;26.67;27.89;99821.00;5103337;28;8859;-76
2023/09/02 09:01:25;;;;;;;;;9.00;7.80;;;;;26.63;27.25;99817.69;5089879;28;8844;-76
2023/09/02 09:03:57;;;;;;;;;8.80;7.80;;;;;26.62;26.65;99812.41;5089919;28;8866;-77
2023/09/02 09:06:26;;;;;;;;;5.20;5.20;;;;;26.75;26.70;99812.25;5089750;28;8864;-78
2023/09/02 09:08:57;;;;;;;;;9.60;9.60;;;;;26.76;27.13;99813.94;5071576;28;8944;-78
2023/09/02 09:11:28;;;;;;;;;10.80;8.00;;;;;26.81;27.80;99820.66;5071109;28;8894;-77
2023/09/02 09:14:01;;;;;;;;;8.80;8.80;;;;;26.92;27.16;99810.81;5089566;28;8859;-78
2023/09/02 09:16:34;;;;;;;;;9.20;9.20;;;;;26.85;27.75;99811.34;5070664;28;9010;-78
2023/09/02 09:19:05;;;;;;;;;8.00;8.00;;;;;26.89;27.23;99816.44;5104463;28;8848;-77
2023/09/02 09:21:33;;;;;;;;;8.00;7.40;;;;;26.93;26.90;99813.38;5105075;28;8938;-76
2023/09/02 09:24:02;;;;;;;;;8.40;8.40;;;;;26.91;26.50;99811.78;5089228;28;9585;-77
2023/09/02 09:26:31;;;;;;;;;7.60;7.60;;;;;26.85;25.82;99816.72;5104478;28;8914;-77
2023/09/02 09:29:00;;;;;;;;;9.00;9.00;;;;;26.84;26.58;99815.00;5089301;28;8925;-77
2023/09/02 09:31:29;;;;;;;;;12.40;9.80;;;;;26.75;27.37;99815.78;5088805;28;8882;-78
2023/09/02 09:34:00;;;;;;;;;10.80;10.80;;;;;26.67;27.97;99807.50;5088874;28;9604;-78
2023/09/02 09:36:31;;;;;;;;;12.00;12.00;;;;;26.86;28.20;99809.50;5087522;28;8986;-78
2023/09/02 09:39:02;;;;;;;;;11.60;11.60;;;;;26.95;27.97;99810.53;5069452;28;8835;-76
2023/09/02 09:41:31;;;;;;;;;9.40;9.40;;;;;26.83;27.32;99818.72;5088860;28;8863;-78
2023/09/02 09:44:05;;;;;;;;;13.60;13.60;;;;;26.93;27.40;99807.97;5088713;28;8852;-77
2023/09/02 09:46:35;;;;;;;;;7.80;7.80;;;;;26.89;27.50;99805.66;5089957;28;8994;-77
2023/09/02 09:49:04;;;;;;;;;11.40;11.40;;;;;26.82;27.74;99816.97;5098092;28;8836;-78
2023/09/02 09:51:34;;;;;;;;;13.00;12.00;;;;;26.83;27.87;99813.31;5097900;28;8952;-77
2023/09/02 09:54:05;;;;;;;;;9.40;9.40;;;;;26.79;27.56;99811.00;5088492;28;9569;-77
2023/09/02 09:56:34;;;;;;;;;9.60;9.60;;;;;26.85;27.29;99800.56;5087644;28;8865;-79
2023/09/02 09:59:08;;;;;;;;;7.60;7.60;;;;;26.83;26.91;99812.44;5088722;28;8855;-77
2023/09/02 10:01:37;;;;;;;;;7.40;7.40;;;;;26.91;26.25;99799.16;5069685;28;8856;-76
2023/09/02 10:04:10;;;;;;;;;8.80;8.80;;;;;26.69;27.46;99807.38;5088996;28;8851;-77
2023/09/02 10:06:41;;;;;;;;;6.20;6.20;;;;;26.70;26.41;99806.38;5087311;28;8865;-79
2023/09/02 10:09:10;;;;;;;;;9.20;9.20;;;;;26.85;27.39;99799.66;5087405;28;8840;-81
2023/09/02 10:11:38;;;;;;;;;11.00;10.80;;;;;26.64;26.40;99807.75;5088684;28;9725;-77
2023/09/02 10:14:08;;;;;;;;;6.80;6.80;;;;;26.69;26.28;99813.63;5069210;28;8859;-77
2023/09/02 10:16:37;;;;;;;;;9.20;9.20;;;;;26.70;26.27;99803.69;5088783;28;8878;-78
2023/09/02 10:19:06;;;;;;;;;8.60;8.60;;;;;26.84;26.20;99804.22;5088213;28;8859;-79
2023/09/02 10:21:36;;;;;;;;;9.80;9.80;;;;;26.80;26.51;99805.47;5036757;28;8869;-78
2023/09/02 10:24:10;;;;;;;;;9.00;8.20;;;;;26.97;26.72;99798.63;5069195;28;8843;-77
2023/09/02 10:26:45;;;;;;;;;8.60;7.60;;;;;27.03;26.44;99795.44;5052423;28;8836;-77
2023/09/02 10:29:17;;;;;;;;;6.00;6.00;;;;;27.09;26.36;99802.13;5088218;28;9694;-80
2023/09/02 10:31:51;;;;;;;;;7.00;7.00;;;;;27.14;26.15;99799.91;5088455;28;8986;-78
2023/09/02 10:34:28;;;;;;;;;8.80;8.80;;;;;27.26;26.04;99800.69;5087995;28;8878;-77
2023/09/02 10:36:57;;;;;;;;;12.20;10.60;;;;;27.27;26.96;99802.41;5091386;28;8942;-79
2023/09/02 10:39:35;;;;;;;;;10.80;10.80;;;;;27.44;26.44;99795.53;5058268;28;8956;-78
2023/09/02 10:42:04;;;;;;;;;11.20;11.20;;;;;27.41;26.53;99793.94;5096224;28;8908;-78
2023/09/02 10:44:34;;;;;;;;;9.00;7.80;;;;;27.50;25.83;99803.06;5095258;28;8863;-76
2023/09/02 10:47:04;;;;;;;;;10.80;10.60;;;;;27.57;26.47;99806.97;5093534;28;8933;-78
2023/09/02 10:49:34;;;;;;;;;11.40;10.40;;;;;27.66;26.85;99799.03;5093350;28;8878;-78
2023/09/02 10:52:03;;;;;;;;;13.25;13.25;;;;;27.78;26.73;99793.41;5108664;28;8917;-78
2023/09/02 10:55:02;;;;;;;;;10.25;10.25;;;;;27.97;27.37;99798.00;5092103;28;8844;-77
2023/09/02 10:57:32;;;;;;;;;14.75;14.75;;;;;27.86;27.44;99800.81;5092035;28;8895;-78
2023/09/02 11:00:15;;;;;;;;;15.00;15.00;;;;;28.08;27.56;99797.00;5091245;28;8923;-77
2023/09/02 11:02:45;;;;;;;;;12.75;12.75;;;;;28.10;26.97;99792.34;5090788;28;8968;-80
2023/09/02 11:05:16;;;;;;;;;11.75;11.75;;;;;28.09;27.37;99790.63;5073165;28;8855;-79
2023/09/02 11:07:45;;;;;;;;;19.75;18.50;;;;;28.21;27.90;99789.53;5090771;28;8873;-78
2023/09/02 11:10:17;;;;;;;;;20.25;19.00;;;;;28.23;28.01;99786.66;5107444;28;8948;-78
2023/09/02 11:13:06;;;;;;;;;17.50;17.50;;;;;28.46;27.65;99789.09;5056570;28;8879;-79
2023/09/02 11:15:36;;;;;;;;;19.00;17.75;;;;;28.37;27.71;99790.84;5091796;28;8866;-78
2023/09/02 11:18:28;;;;;;;;;17.00;17.00;;;;;28.58;27.72;99793.38;5083752;28;8844;-78
2023/09/02 11:20:58;;;;;;;;;17.00;17.00;;;;;28.53;27.13;99788.38;5073013;28;8868;-78
2023/09/02 11:23:26;;;;;;;;;17.00;17.00;;;;;28.69;27.64;99787.00;5107162;28;8956;-77
2023/09/02 11:26:06;;;;;;;;;3.50;3.50;;;;;28.98;27.89;99786.97;5073201;28;8871;-79
2023/09/02 11:28:35;;;;;;;;;17.25;17.25;;;;;29.05;27.19;99781.81;5056691;28;8852;-79
2023/09/02 11:31:08;;;;;;;;;15.75;14.75;;;;;29.26;26.39;99776.22;5106836;28;8855;-79
2023/09/02 11:33:38;;;;;;;;;15.75;15.25;;;;;29.42;26.68;99778.31;5091209;28;9609;-78
2023/09/02 11:36:11;;;;;;;;;16.50;16.25;;;;;29.55;26.19;99773.41;5107144;28;8839;-79
2023/09/02 11:38:39;;;;;;;;;13.50;12.25;;;;;29.60;25.75;99778.38;5091510;28;8855;-78
2023/09/02 11:41:19;;;;;;;;;15.00;14.25;;;;;29.72;25.00;99782.59;5056863;28;8882;-78